Time;durP1;ratioP1;P1;durP2;ratioP2;P2;SDS_P1;SDS_P2;PMS_P1;PMS_P2;Temp;Humidity;BMP_temperature;BMP_pressure;BME280_temperature;BME280_humidity;BME280_pressure;Samples;Min_cycle;Max_cycle;Signal;HPM_P1;HPM_P2
2022/11/02 00:00:32;;;;;;;8.03;3.17;;;9.20;99.90;;;;;;5054180;28;20036;-85
2022/11/02 00:02:58;;;;;;;7.30;3.40;;;9.20;99.90;;;;;;5054400;28;20761;-85
2022/11/02 00:05:25;;;;;;;5.38;2.78;;;9.20;99.90;;;;;;5052353;28;20025;-84
2022/11/02 00:07:52;;;;;;;6.67;3.20;;;9.20;99.90;;;;;;5053807;28;20087;-85
2022/11/02 00:10:18;;;;;;;5.50;2.90;;;9.20;99.90;;;;;;5054060;28;20474;-85
2022/11/02 00:12:45;;;;;;;6.00;3.30;;;9.20;99.90;;;;;;5053693;28;20423;-85
2022/11/02 00:15:11;;;;;;;9.50;3.33;;;9.20;99.90;;;;;;5053640;28;20037;-85
2022/11/02 00:17:39;;;;;;;6.03;3.20;;;9.20;99.90;;;;;;5053613;28;20104;-85
2022/11/02 00:20:06;;;;;;;6.63;3.53;;;9.20;99.90;;;;;;5053607;28;20099;-85
2022/11/02 00:22:32;;;;;;;9.70;3.33;;;9.20;99.90;;;;;;5052335;28;20039;-84
2022/11/02 00:24:59;;;;;;;7.67;3.17;;;9.20;99.90;;;;;;5053420;28;20017;-84
2022/11/02 00:27:25;;;;;;;5.73;2.97;;;9.20;99.90;;;;;;5053462;28;20504;-84
2022/11/02 00:29:51;;;;;;;7.10;2.97;;;9.30;99.90;;;;;;5050476;28;20028;-84
2022/11/02 00:32:16;;;;;;;6.63;3.23;;;9.20;99.90;;;;;;5042273;28;20030;-84
2022/11/02 00:34:42;;;;;;;7.70;3.13;;;9.20;99.90;;;;;;5033381;28;20029;-84
2022/11/02 00:37:07;;;;;;;6.77;2.83;;;9.20;99.90;;;;;;5033175;28;20033;-84
2022/11/02 00:39:33;;;;;;;5.75;3.25;;;9.20;99.90;;;;;;5047898;28;20790;-84
2022/11/02 00:41:59;;;;;;;5.82;2.92;;;9.20;99.90;;;;;;5053147;28;20029;-84
2022/11/02 00:44:24;;;;;;;6.27;2.87;;;9.10;99.90;;;;;;5053281;28;20096;-84
2022/11/02 00:46:50;;;;;;;6.73;3.10;;;9.10;99.90;;;;;;5053190;28;20419;-84
2022/11/02 00:49:16;;;;;;;7.57;3.50;;;9.10;99.90;;;;;;5053295;28;20489;-85
2022/11/02 00:51:42;;;;;;;7.97;4.33;;;9.00;99.90;;;;;;5052947;28;20049;-85
2022/11/02 00:54:07;;;;;;;8.37;3.80;;;8.90;99.90;;;;;;5053537;28;20033;-85
2022/11/02 00:56:33;;;;;;;10.70;4.53;;;8.80;99.90;;;;;;5053027;28;20070;-85
2022/11/02 00:58:58;;;;;;;10.83;4.93;;;8.70;99.90;;;;;;5053224;28;20381;-84
2022/11/02 01:01:24;;;;;;;14.17;5.50;;;8.70;99.90;;;;;;5053094;28;20029;-85
2022/11/02 01:03:50;;;;;;;10.13;4.90;;;8.60;99.90;;;;;;5053171;28;20381;-85
2022/11/02 01:06:15;;;;;;;12.80;5.53;;;8.60;99.90;;;;;;5052931;28;20025;-84
2022/11/02 01:08:41;;;;;;;12.10;5.53;;;8.50;99.90;;;;;;5052982;28;20104;-85
2022/11/02 01:11:21;;;;;;;15.07;5.53;;;8.50;99.90;;;;;;5053001;28;20029;-85
2022/11/02 01:13:49;;;;;;;13.17;6.10;;;8.40;99.90;;;;;;5052959;28;20032;-85
2022/11/02 01:16:15;;;;;;;13.23;5.27;;;8.40;99.90;;;;;;5053167;28;20021;-84
2022/11/02 01:18:41;;;;;;;12.83;5.73;;;8.40;99.90;;;;;;5053031;28;20094;-85
2022/11/02 01:21:07;;;;;;;9.87;4.43;;;8.30;99.90;;;;;;5052970;28;20036;-84
2022/11/02 01:23:35;;;;;;;5.93;3.50;;;8.30;99.90;;;;;;5052791;28;20017;-85
2022/11/02 01:26:08;;;;;;;7.07;3.47;;;8.30;99.90;;;;;;5052856;28;20489;-85
2022/11/02 01:28:34;;;;;;;6.33;3.40;;;8.30;99.90;;;;;;5052727;28;20104;-85
2022/11/02 01:31:00;;;;;;;9.40;3.97;;;8.20;99.90;;;;;;5045541;28;20025;-85
2022/11/02 01:33:27;;;;;;;7.47;3.50;;;8.30;99.90;;;;;;5049977;28;20478;-85
2022/11/02 01:35:53;;;;;;;6.63;3.30;;;8.20;99.90;;;;;;5052347;28;20090;-85
2022/11/02 01:38:18;;;;;;;5.83;3.37;;;8.20;99.90;;;;;;5052254;28;20121;-85
2022/11/02 01:40:44;;;;;;;5.37;3.87;;;8.30;99.90;;;;;;5052316;28;20060;-85
2022/11/02 01:43:24;;;;;;;11.03;3.40;;;8.30;99.90;;;;;;5052578;28;20047;-85
2022/11/02 01:45:53;;;;;;;7.13;3.40;;;8.40;99.90;;;;;;5051775;28;20108;-85
2022/11/02 01:48:25;;;;;;;8.67;4.03;;;8.40;99.90;;;;;;5052046;28;20040;-85
2022/11/02 01:50:51;;;;;;;5.97;3.03;;;8.40;99.90;;;;;;5051905;28;20037;-84
2022/11/02 01:53:16;;;;;;;8.27;3.47;;;8.50;99.90;;;;;;5051596;28;20025;-84
2022/11/02 01:55:42;;;;;;;7.40;3.10;;;8.40;99.90;;;;;;5051819;28;20028;-85
2022/11/02 01:58:10;;;;;;;7.53;3.20;;;8.40;99.90;;;;;;5052018;28;20029;-84
2022/11/02 02:00:37;;;;;;;7.90;3.30;;;8.40;99.90;;;;;;5051753;28;20017;-84
2022/11/02 02:03:08;;;;;;;7.93;3.27;;;8.40;99.90;;;;;;5051680;28;20485;-84
2022/11/02 02:05:57;;;;;;;6.97;3.10;;;8.40;99.90;;;;;;5050422;28;20025;-84
2022/11/02 02:08:25;;;;;;;7.47;3.20;;;8.40;99.90;;;;;;5051001;28;20537;-84
2022/11/02 02:10:55;;;;;;;7.93;3.30;;;8.40;99.90;;;;;;5051432;28;20132;-84
2022/11/02 02:13:21;;;;;;;8.53;3.43;;;8.40;99.90;;;;;;5051350;28;20021;-85
2022/11/02 02:16:14;;;;;;;9.13;3.40;;;8.40;99.90;;;;;;5051633;28;20028;-84
2022/11/02 02:18:48;;;;;;;7.50;3.20;;;8.30;99.90;;;;;;5051838;28;20085;-84
2022/11/02 02:21:44;;;;;;;6.53;3.33;;;8.30;99.90;;;;;;5049475;28;20029;-84
2022/11/02 02:24:28;;;;;;;9.45;3.72;;;8.40;99.90;;;;;;5051282;28;20500;-84
2022/11/02 02:27:25;;;;;;;6.07;3.30;;;8.40;99.90;;;;;;5034852;28;20032;-84
2022/11/02 02:30:06;;;;;;;5.43;2.80;;;8.30;99.90;;;;;;5048863;28;20033;-84
2022/11/02 02:32:43;;;;;;;6.53;3.10;;;8.40;99.90;;;;;;5031416;28;20086;-84
2022/11/02 02:35:26;;;;;;;8.43;3.40;;;8.40;99.90;;;;;;5048835;28;20040;-84
2022/11/02 02:38:01;;;;;;;5.33;3.70;;;8.40;99.90;;;;;;5051263;28;20025;-84
2022/11/02 02:41:02;;;;;;;8.95;3.92;;;8.50;99.90;;;;;;5051539;28;20419;-84
2022/11/02 02:43:33;;;;;;;6.13;3.37;;;8.50;99.90;;;;;;5034661;28;20051;-84
2022/11/02 02:46:08;;;;;;;7.73;3.53;;;8.60;99.90;;;;;;5051278;28;20029;-84
2022/11/02 02:48:36;;;;;;;9.55;4.55;;;8.70;99.90;;;;;;5050939;28;20028;-84
2022/11/02 02:51:06;;;;;;;8.07;3.63;;;8.70;99.90;;;;;;5051323;28;20044;-84
2022/11/02 02:53:43;;;;;;;11.63;3.90;;;8.80;99.90;;;;;;5050900;28;20098;-84
2022/11/02 02:56:10;;;;;;;6.70;3.83;;;8.90;99.90;;;;;;5051491;28;20395;-85
2022/11/02 02:58:43;;;;;;;8.97;4.50;;;8.90;99.90;;;;;;5051187;28;20082;-84
2022/11/02 03:01:12;;;;;;;8.33;4.20;;;8.90;99.90;;;;;;5051077;28;20029;-84
2022/11/02 03:03:41;;;;;;;8.10;4.33;;;9.00;99.90;;;;;;5051092;28;20052;-84
2022/11/02 03:06:23;;;;;;;8.40;4.17;;;9.00;99.90;;;;;;5050475;28;20098;-84
2022/11/02 03:09:19;;;;;;;8.20;3.70;;;9.10;99.90;;;;;;5050881;28;20760;-84
2022/11/02 03:12:16;;;;;;;9.00;3.95;;;9.10;99.90;;;;;;5033625;28;20494;-84
2022/11/02 03:15:01;;;;;;;7.93;4.43;;;9.10;99.90;;;;;;5046617;28;20029;-84
2022/11/02 03:17:30;;;;;;;9.40;4.13;;;9.20;99.90;;;;;;5050576;28;20029;-84
2022/11/02 03:20:18;;;;;;;7.77;3.60;;;9.20;99.90;;;;;;5049445;28;20945;-84
2022/11/02 03:23:01;;;;;;;7.83;3.87;;;9.20;99.90;;;;;;5050286;28;20052;-84
2022/11/02 03:25:46;;;;;;;8.17;3.70;;;9.20;99.90;;;;;;5039805;28;20120;-85
2022/11/02 03:28:15;;;;;;;13.02;4.40;;;9.20;99.90;;;;;;5048494;28;20033;-84
2022/11/02 03:30:48;;;;;;;8.57;4.17;;;9.30;99.90;;;;;;5052475;28;20028;-84
2022/11/02 03:33:33;;;;;;;11.25;4.68;;;9.30;99.90;;;;;;5055610;28;20025;-84
2022/11/02 03:36:05;;;;;;;7.72;4.47;;;9.30;99.90;;;;;;5056257;28;20029;-84
2022/11/02 03:38:39;;;;;;;7.88;4.30;;;9.30;99.90;;;;;;5054486;28;20029;-84
2022/11/02 03:41:06;;;;;;;9.87;5.20;;;9.30;99.90;;;;;;5041875;28;20029;-84
2022/11/02 03:43:34;;;;;;;11.00;4.67;;;9.30;99.90;;;;;;5048180;28;20028;-84
2022/11/02 03:46:03;;;;;;;8.13;4.63;;;9.30;99.90;;;;;;5049600;28;20021;-84
2022/11/02 03:48:35;;;;;;;8.77;4.70;;;9.30;99.90;;;;;;5056145;28;20135;-84
2022/11/02 03:51:05;;;;;;;14.47;4.50;;;9.40;99.90;;;;;;5056045;28;20114;-84
2022/11/02 03:53:42;;;;;;;10.60;5.00;;;9.40;99.90;;;;;;5056180;28;20482;-84
2022/11/02 03:56:15;;;;;;;9.83;4.93;;;9.40;99.90;;;;;;5056041;28;20036;-84
2022/11/02 03:58:41;;;;;;;8.38;4.65;;;9.40;99.90;;;;;;5056264;28;20021;-84
2022/11/02 04:01:07;;;;;;;12.77;5.03;;;9.40;99.90;;;;;;5055956;28;20769;-84
2022/11/02 04:03:37;;;;;;;9.37;4.40;;;9.40;99.90;;;;;;5041536;28;20060;-84
2022/11/02 04:06:03;;;;;;;11.93;5.67;;;9.40;99.90;;;;;;5036144;28;20017;-84
2022/11/02 04:08:49;;;;;;;9.07;4.45;;;9.30;99.90;;;;;;5035858;28;20095;-85
2022/11/02 04:16:43;;;;;;;21.85;5.88;;;9.30;99.90;;;;;;5036104;28;20079;-84
2022/11/02 04:19:28;;;;;;;10.70;4.47;;;9.20;99.90;;;;;;5036055;28;20755;-84
2022/11/02 04:27:24;;;;;;;10.55;4.97;;;9.10;99.90;;;;;;5036064;28;20032;-85
2022/11/02 04:29:49;;;;;;;9.37;4.50;;;9.00;99.90;;;;;;5036775;28;20421;-84
2022/11/02 04:33:31;;;;;;;12.83;5.00;;;9.00;99.90;;;;;;5055407;28;20025;-84
2022/11/02 04:35:02;;;;;;;13.27;5.10;;;9.00;99.90;;;;;;5055413;28;20029;-84
2022/11/02 04:40:12;;;;;;;9.93;5.05;;;9.00;99.90;;;;;;5055214;28;20405;-84
2022/11/02 04:42:37;;;;;;;13.13;5.50;;;8.90;99.90;;;;;;5055343;28;20029;-84
2022/11/02 04:45:03;;;;;;;14.60;7.43;;;9.00;99.90;;;;;;5054760;28;20029;-84
2022/11/02 04:47:29;;;;;;;18.77;7.30;;;8.90;99.90;;;;;;5055309;28;20021;-84
2022/11/02 04:49:54;;;;;;;16.50;7.03;;;9.00;99.90;;;;;;5055353;28;20033;-84
2022/11/02 04:52:20;;;;;;;17.00;6.50;;;8.90;99.90;;;;;;5055598;28;20056;-84
2022/11/02 04:54:45;;;;;;;17.70;6.60;;;8.90;99.90;;;;;;5056049;28;20111;-86
2022/11/02 04:57:11;;;;;;;15.10;7.37;;;8.90;99.90;;;;;;5055554;28;20476;-86
2022/11/02 04:59:36;;;;;;;11.30;6.53;;;9.00;99.90;;;;;;5055701;28;20543;-86
2022/11/02 05:02:02;;;;;;;13.90;6.60;;;8.90;99.90;;;;;;5056021;28;20491;-86
2022/11/02 05:04:27;;;;;;;12.03;6.60;;;9.00;99.90;;;;;;5055092;28;20017;-86
2022/11/02 05:06:53;;;;;;;15.37;6.77;;;9.00;99.90;;;;;;5055052;28;20100;-86
2022/11/02 05:09:19;;;;;;;16.85;6.82;;;9.00;99.90;;;;;;5057195;28;20025;-85
2022/11/02 05:11:44;;;;;;;12.40;6.22;;;9.00;99.90;;;;;;5057330;28;20033;-85
2022/11/02 05:14:10;;;;;;;12.30;6.63;;;9.00;99.90;;;;;;5056194;28;20069;-86
2022/11/02 05:16:35;;;;;;;14.37;6.70;;;9.10;99.90;;;;;;5056210;28;20511;-87
2022/11/02 05:19:01;;;;;;;15.30;6.80;;;9.10;99.90;;;;;;5055431;28;20039;-87
2022/11/02 05:21:27;;;;;;;12.13;6.63;;;9.10;99.90;;;;;;5055160;28;20029;-89
2022/11/02 05:23:52;;;;;;;12.73;6.37;;;9.20;99.90;;;;;;5054748;28;20450;-89
2022/11/02 05:26:18;;;;;;;15.47;6.33;;;9.20;99.90;;;;;;5054890;28;20051;-89
2022/11/02 05:28:43;;;;;;;12.38;5.93;;;9.20;99.90;;;;;;5054380;28;20023;-89
2022/11/02 05:31:09;;;;;;;11.87;6.27;;;9.20;99.90;;;;;;5054127;28;20473;-89
2022/11/02 05:33:35;;;;;;;17.20;8.20;;;9.20;99.90;;;;;;5054767;28;20037;-88
2022/11/02 05:36:00;;;;;;;12.50;5.80;;;9.30;99.90;;;;;;5054442;28;20162;-89
2022/11/02 05:38:27;;;;;;;11.57;6.03;;;9.30;99.90;;;;;;5054494;28;20070;-89
2022/11/02 05:40:54;;;;;;;13.33;6.87;;;9.30;99.90;;;;;;5054768;28;20025;-89
2022/11/02 05:43:21;;;;;;;9.33;5.87;;;9.20;99.90;;;;;;5054138;28;20051;-89
2022/11/02 05:45:59;;;;;;;10.70;5.53;;;9.20;99.90;;;;;;5054060;28;20072;-89
2022/11/02 05:48:26;;;;;;;13.27;6.23;;;9.20;99.90;;;;;;5052490;28;20032;-89
2022/11/02 05:50:56;;;;;;;9.37;6.20;;;9.10;99.90;;;;;;5042201;28;20686;-86
2022/11/02 05:53:23;;;;;;;10.27;5.80;;;9.10;99.90;;;;;;5043327;28;20108;-86
2022/11/02 05:55:49;;;;;;;12.87;6.57;;;9.10;99.90;;;;;;5041326;28;20025;-86
2022/11/02 05:58:14;;;;;;;16.17;10.43;;;9.10;99.90;;;;;;5042628;28;20044;-86
2022/11/02 06:00:40;;;;;;;17.57;10.43;;;9.10;99.90;;;;;;5045472;28;20025;-84
2022/11/02 06:03:06;;;;;;;14.45;8.48;;;9.00;99.90;;;;;;5035913;28;20022;-86
2022/11/02 06:05:32;;;;;;;15.73;8.13;;;9.00;99.90;;;;;;5041937;28;20104;-86
2022/11/02 06:08:01;;;;;;;14.30;7.17;;;9.00;99.90;;;;;;5038579;28;20009;-82
2022/11/02 06:10:28;;;;;;;12.20;6.73;;;8.90;99.90;;;;;;5046935;28;20021;-83
2022/11/02 06:12:58;;;;;;;17.93;11.07;;;8.90;99.90;;;;;;5040334;28;20037;-84
2022/11/02 06:15:24;;;;;;;12.00;7.57;;;8.90;99.90;;;;;;5046695;28;20048;-84
2022/11/02 06:18:13;;;;;;;13.50;7.20;;;8.90;99.90;;;;;;5068299;28;20797;-84
2022/11/02 06:20:38;;;;;;;12.30;6.63;;;8.80;99.90;;;;;;5060015;28;20083;-84
2022/11/02 06:23:04;;;;;;;13.27;7.15;;;8.80;99.90;;;;;;5061464;28;20757;-85
2022/11/02 06:25:29;;;;;;;16.70;7.27;;;8.80;99.90;;;;;;5062182;28;20029;-84
2022/11/02 06:27:56;;;;;;;13.77;7.50;;;8.80;99.90;;;;;;5063142;28;20017;-84
2022/11/02 06:30:25;;;;;;;17.45;7.97;;;8.80;99.90;;;;;;5062282;28;20051;-84
2022/11/02 06:32:54;;;;;;;12.53;6.40;;;8.80;99.90;;;;;;5067249;28;20024;-85
2022/11/02 06:35:22;;;;;;;14.93;6.67;;;8.80;99.90;;;;;;5062822;28;20186;-87
2022/11/02 06:37:47;;;;;;;15.80;7.20;;;8.80;99.90;;;;;;5061966;28;20033;-84
2022/11/02 06:40:14;;;;;;;13.13;6.80;;;8.80;99.90;;;;;;5064936;28;20329;-84
2022/11/02 06:43:03;;;;;;;13.73;6.80;;;8.80;99.90;;;;;;5065480;28;20033;-86
2022/11/02 06:45:36;;;;;;;11.83;6.70;;;8.90;99.90;;;;;;5061562;28;21087;-87
2022/11/02 06:48:01;;;;;;;15.50;6.73;;;8.90;99.90;;;;;;5061515;28;20032;-84
2022/11/02 06:50:28;;;;;;;13.17;7.57;;;8.80;99.90;;;;;;5067069;28;20025;-85
2022/11/02 06:52:54;;;;;;;17.23;7.67;;;8.90;99.90;;;;;;5061744;28;20021;-87
2022/11/02 06:55:19;;;;;;;14.17;6.90;;;8.90;99.90;;;;;;5066593;28;20054;-87
2022/11/02 06:57:45;;;;;;;15.37;8.53;;;8.90;99.90;;;;;;5067832;28;20064;-87
2022/11/02 07:00:16;;;;;;;13.47;6.67;;;9.00;99.90;;;;;;5067689;28;20090;-87
2022/11/02 07:02:45;;;;;;;11.60;6.47;;;9.00;99.90;;;;;;5068494;28;20017;-88
2022/11/02 07:05:11;;;;;;;16.33;6.93;;;9.10;99.90;;;;;;5068980;28;20493;-84
2022/11/02 07:07:37;;;;;;;13.60;7.33;;;9.10;99.90;;;;;;5069846;28;20020;-84
2022/11/02 07:10:03;;;;;;;16.65;7.88;;;9.20;99.90;;;;;;5069460;28;20491;-84
2022/11/02 07:12:34;;;;;;;13.60;7.00;;;9.20;99.90;;;;;;5068967;28;20025;-84
2022/11/02 07:14:59;;;;;;;11.43;6.07;;;9.20;99.90;;;;;;5058671;28;20389;-85
2022/11/02 07:17:25;;;;;;;16.10;6.53;;;9.20;99.90;;;;;;5067422;28;20056;-84
2022/11/02 07:19:50;;;;;;;12.37;6.43;;;9.30;99.90;;;;;;5068911;28;20025;-85
2022/11/02 07:22:16;;;;;;;8.27;4.73;;;9.30;99.90;;;;;;5069018;28;20410;-85
2022/11/02 07:24:41;;;;;;;12.37;4.97;;;9.40;99.90;;;;;;5058716;28;20025;-84
2022/11/02 07:27:07;;;;;;;11.03;4.63;;;9.50;99.90;;;;;;5066242;28;20438;-84
2022/11/02 07:29:32;;;;;;;11.47;4.90;;;9.60;99.90;;;;;;5051523;28;20473;-84
2022/11/02 07:31:58;;;;;;;14.90;5.60;;;9.60;99.90;;;;;;5038835;28;20800;-86
2022/11/02 07:34:23;;;;;;;10.60;4.57;;;9.70;99.90;;;;;;5044313;28;20517;-85
2022/11/02 07:36:49;;;;;;;9.47;4.70;;;9.80;99.90;;;;;;5055682;28;20033;-86
2022/11/02 07:39:15;;;;;;;9.98;4.35;;;9.80;99.90;;;;;;5055931;28;20363;-86
2022/11/02 07:41:40;;;;;;;12.47;4.80;;;10.00;99.90;;;;;;5055837;28;20017;-85
2022/11/02 07:44:06;;;;;;;7.82;4.50;;;10.10;99.90;;;;;;5055528;28;20090;-85
2022/11/02 07:46:32;;;;;;;13.40;5.57;;;10.20;99.90;;;;;;5055814;28;20406;-85
2022/11/02 07:48:58;;;;;;;9.00;4.38;;;10.30;99.90;;;;;;5055689;28;20060;-86
2022/11/02 07:51:23;;;;;;;10.05;4.65;;;10.50;99.90;;;;;;5055482;28;20431;-86
2022/11/02 07:53:49;;;;;;;10.35;5.00;;;10.60;99.90;;;;;;5055567;28;20032;-86
2022/11/02 07:56:14;;;;;;;11.57;4.35;;;10.80;99.90;;;;;;5055321;28;20048;-87
2022/11/02 07:58:40;;;;;;;8.55;3.80;;;11.00;99.90;;;;;;5055291;28;20020;-87
2022/11/02 08:01:05;;;;;;;8.23;4.10;;;11.30;99.90;;;;;;5055604;28;20025;-86
2022/11/02 08:03:31;;;;;;;8.98;4.05;;;11.50;99.90;;;;;;5055245;28;20060;-87
2022/11/02 08:06:00;;;;;;;9.00;5.10;;;11.80;99.90;;;;;;5055158;28;20025;-87
2022/11/02 08:08:26;;;;;;;13.73;4.00;;;12.00;99.90;;;;;;5055371;28;20126;-86
2022/11/02 08:10:52;;;;;;;8.75;3.85;;;12.10;99.90;;;;;;5053724;28;20498;-86
2022/11/02 08:13:22;;;;;;;8.77;3.47;;;12.20;99.90;;;;;;5055279;28;20025;-87
2022/11/02 08:15:50;;;;;;;12.77;4.10;;;12.30;99.90;;;;;;5054571;28;20039;-87
2022/11/02 08:18:18;;;;;;;11.45;4.18;;;12.40;99.90;;;;;;5053175;28;20025;-88
2022/11/02 08:20:46;;;;;;;9.52;3.28;;;12.60;99.90;;;;;;5052426;28;20500;-85
2022/11/02 08:23:14;;;;;;;8.23;3.10;;;12.80;99.90;;;;;;5054512;28;20075;-85
2022/11/02 08:25:40;;;;;;;9.13;3.00;;;13.00;99.90;;;;;;5054575;28;20025;-85
2022/11/02 08:28:08;;;;;;;6.20;2.30;;;13.20;99.90;;;;;;5054870;28;20436;-87
2022/11/02 08:30:34;;;;;;;8.55;2.53;;;13.40;99.90;;;;;;5054807;28;20719;-87
2022/11/02 08:33:04;;;;;;;9.77;2.33;;;13.70;99.90;;;;;;5048731;28;20075;-85
2022/11/02 08:35:30;;;;;;;10.00;2.40;;;13.80;99.90;;;;;;5048232;28;20659;-85
2022/11/02 08:37:56;;;;;;;6.78;2.35;;;14.00;99.90;;;;;;5050867;28;20037;-85
2022/11/02 08:40:22;;;;;;;6.70;2.33;;;14.00;99.90;;;;;;5050679;28;20071;-86
2022/11/02 08:42:48;;;;;;;6.57;2.05;;;14.00;99.90;;;;;;5051828;28;20021;-85
2022/11/02 08:45:14;;;;;;;7.30;2.10;;;14.10;99.90;;;;;;5052235;28;20044;-85
2022/11/02 08:47:42;;;;;;;8.40;2.33;;;14.10;99.90;;;;;;5056737;28;20055;-85
2022/11/02 08:50:09;;;;;;;11.20;3.20;;;14.10;99.90;;;;;;5052627;28;20430;-85
2022/11/02 08:52:36;;;;;;;7.78;2.00;;;14.00;99.90;;;;;;5052251;28;20028;-85
2022/11/02 08:55:02;;;;;;;6.68;1.80;;;14.00;99.90;;;;;;5051808;28;20021;-88
2022/11/02 08:57:27;;;;;;;5.88;1.80;;;14.10;99.90;;;;;;5054662;28;20098;-88
2022/11/02 08:59:53;;;;;;;8.65;2.00;;;14.10;99.90;;;;;;5054119;28;20103;-88
2022/11/02 09:02:18;;;;;;;8.45;2.00;;;14.20;99.90;;;;;;5053972;28;20017;-85
2022/11/02 09:04:44;;;;;;;4.93;1.67;;;14.40;99.90;;;;;;5052507;28;20360;-85
2022/11/02 09:07:09;;;;;;;6.68;1.85;;;14.50;99.90;;;;;;5053706;28;20708;-85
2022/11/02 09:09:35;;;;;;;10.10;2.30;;;14.60;99.90;;;;;;5053640;28;20025;-85
2022/11/02 09:12:03;;;;;;;7.55;1.70;;;14.60;99.90;;;;;;5043881;28;20099;-85
2022/11/02 09:14:28;;;;;;;7.55;1.95;;;14.70;99.90;;;;;;5052906;28;20031;-85
2022/11/02 09:16:54;;;;;;;9.73;3.38;;;14.60;99.90;;;;;;5052474;28;20049;-85
2022/11/02 09:19:19;;;;;;;7.53;1.90;;;14.60;99.90;;;;;;5053645;28;20028;-85
2022/11/02 09:21:46;;;;;;;8.60;1.63;;;14.70;99.90;;;;;;5053137;28;20021;-85
2022/11/02 09:24:12;;;;;;;8.13;1.85;;;14.80;99.90;;;;;;5053022;28;20017;-85
2022/11/02 09:26:38;;;;;;;9.85;1.67;;;14.80;99.90;;;;;;5052017;28;20083;-85
2022/11/02 09:29:03;;;;;;;6.10;1.90;;;14.80;99.90;;;;;;5050434;28;20532;-85
2022/11/02 09:31:29;;;;;;;7.30;1.60;;;14.80;99.90;;;;;;5036225;28;20481;-85
2022/11/02 09:33:54;;;;;;;7.13;1.90;;;14.70;99.90;;;;;;5049432;28;20029;-85
2022/11/02 09:36:20;;;;;;;5.55;1.58;;;14.70;99.90;;;;;;5049636;28;20035;-85
2022/11/02 09:38:46;;;;;;;8.30;2.05;;;14.80;99.90;;;;;;5049938;28;20469;-85
2022/11/02 09:41:30;;;;;;;10.20;1.80;;;14.80;99.90;;;;;;5050100;28;20440;-86
2022/11/02 09:44:17;;;;;;;8.30;1.90;;;14.90;99.90;;;;;;5051424;28;20025;-90
2022/11/02 09:46:45;;;;;;;8.93;1.88;;;15.00;99.90;;;;;;5051863;28;20037;-84
2022/11/02 09:49:15;;;;;;;9.90;2.40;;;14.90;99.90;;;;;;5053073;28;20021;-84
2022/11/02 09:51:53;;;;;;;6.90;1.88;;;14.80;99.90;;;;;;5051575;28;20028;-85
2022/11/02 09:54:27;;;;;;;6.78;1.88;;;14.70;99.90;;;;;;5049694;28;20052;-84
2022/11/02 09:57:01;;;;;;;9.53;2.67;;;14.50;99.90;;;;;;5050539;28;20035;-84
2022/11/02 09:59:27;;;;;;;7.68;2.28;;;14.40;99.90;;;;;;5052368;28;20350;-90
2022/11/02 10:02:22;;;;;;;8.68;1.95;;;14.40;99.90;;;;;;5052305;28;20057;-89
2022/11/02 10:05:19;;;;;;;6.97;2.38;;;14.40;99.90;;;;;;5052798;28;20029;-90
2022/11/02 10:07:59;;;;;;;9.05;1.90;;;14.40;99.90;;;;;;5052849;28;20096;-91
2022/11/02 10:10:27;;;;;;;8.85;1.90;;;14.60;99.90;;;;;;5052613;28;20503;-91
2022/11/02 10:12:53;;;;;;;8.77;1.85;;;14.60;99.90;;;;;;5052579;28;20470;-90
2022/11/02 10:15:32;;;;;;;9.68;2.05;;;14.70;99.90;;;;;;5052427;28;20086;-91
2022/11/02 10:17:59;;;;;;;6.85;1.52;;;14.80;99.90;;;;;;5052353;28;20055;-90
2022/11/02 10:20:28;;;;;;;15.70;2.42;;;14.90;99.90;;;;;;5052507;28;20033;-90
2022/11/02 10:22:58;;;;;;;4.43;1.52;;;14.80;99.90;;;;;;5052597;28;20454;-90
2022/11/02 10:25:25;;;;;;;9.52;2.55;;;14.80;99.90;;;;;;5052401;28;20025;-90
2022/11/02 10:27:59;;;;;;;5.70;1.63;;;14.80;99.90;;;;;;5052045;28;20120;-90
2022/11/02 10:30:26;;;;;;;11.00;2.05;;;14.90;99.90;;;;;;5048947;28;20044;-90
2022/11/02 10:32:54;;;;;;;9.63;2.03;;;15.10;99.90;;;;;;5051902;28;20048;-90
2022/11/02 10:35:39;;;;;;;8.13;2.40;;;15.20;99.90;;;;;;5049925;28;20064;-85
2022/11/02 10:38:35;;;;;;;7.88;1.90;;;15.30;99.90;;;;;;5037924;28;20033;-84
2022/11/02 10:41:37;;;;;;;11.05;1.80;;;15.30;99.90;;;;;;5049771;28;20029;-84
2022/11/02 10:44:21;;;;;;;9.95;2.38;;;15.50;99.90;;;;;;5049601;28;20068;-85
2022/11/02 10:47:14;;;;;;;7.80;1.60;;;15.60;99.90;;;;;;5045353;28;20024;-84
2022/11/02 10:50:01;;;;;;;9.20;1.80;;;15.70;99.90;;;;;;5048430;28;20079;-84
2022/11/02 10:52:35;;;;;;;8.15;2.05;;;15.80;99.90;;;;;;5044102;28;20086;-85
2022/11/02 10:55:03;;;;;;;11.10;2.20;;;15.90;99.90;;;;;;5046727;28;20111;-84
2022/11/02 10:57:31;;;;;;;6.07;2.03;;;15.90;99.90;;;;;;5051024;28;20036;-88
2022/11/02 11:00:23;;;;;;;7.80;1.70;;;15.90;99.90;;;;;;5055200;28;20369;-88
2022/11/02 11:03:05;;;;;;;8.38;2.15;;;16.00;99.90;;;;;;5051830;28;20096;-88
2022/11/02 11:05:33;;;;;;;9.48;2.05;;;16.10;99.90;;;;;;5061417;28;20025;-87
2022/11/02 11:08:00;;;;;;;9.52;2.30;;;16.00;99.90;;;;;;5059793;28;20532;-88
2022/11/02 11:10:26;;;;;;;7.85;1.90;;;16.00;99.90;;;;;;5059502;28;20028;-88
2022/11/02 11:12:54;;;;;;;8.23;1.67;;;16.00;99.90;;;;;;5058292;28;20083;-87
2022/11/02 11:15:31;;;;;;;8.30;2.20;;;15.90;99.90;;;;;;5055495;28;20025;-88
2022/11/02 11:17:56;;;;;;;7.95;1.90;;;15.80;99.90;;;;;;5053227;28;20106;-85
2022/11/02 11:20:31;;;;;;;10.48;2.05;;;15.70;99.90;;;;;;5054490;28;20025;-85
2022/11/02 11:23:15;;;;;;;;;;;15.60;99.90;;;;;;5055905;28;20416;-85
2022/11/02 11:25:42;;;;;;;10.68;1.95;;;15.40;99.90;;;;;;5055715;28;20009;-84
2022/11/02 11:28:29;;;;;;;8.82;1.90;;;15.40;99.90;;;;;;5054488;28;20059;-85
2022/11/02 11:31:11;;;;;;;6.72;1.75;;;15.40;99.90;;;;;;5055390;28;20025;-85
2022/11/02 11:33:42;;;;;;;6.80;1.50;;;15.40;99.90;;;;;;5055288;28;20021;-89
2022/11/02 11:36:10;;;;;;;6.82;1.42;;;15.40;99.90;;;;;;5055306;28;20029;-90
2022/11/02 11:38:43;;;;;;;6.28;2.00;;;15.30;99.90;;;;;;5054322;28;20025;-90
2022/11/02 11:41:11;;;;;;;4.85;1.35;;;15.20;99.90;;;;;;5048943;28;20052;-89
2022/11/02 11:43:39;;;;;;;10.20;1.65;;;15.00;99.90;;;;;;5054829;28;20517;-90
2022/11/02 11:46:07;;;;;;;8.30;1.27;;;15.00;99.90;;;;;;5054836;28;20473;-90
2022/11/02 11:48:40;;;;;;;5.47;1.45;;;14.90;99.90;;;;;;5054836;28;20185;-91
2022/11/02 11:51:33;;;;;;;6.45;1.77;;;14.90;99.90;;;;;;5054887;28;20047;-89
2022/11/02 11:54:04;;;;;;;6.07;1.50;;;14.80;99.90;;;;;;5034869;28;20025;-88
2022/11/02 11:56:31;;;;;;;6.97;1.30;;;14.70;99.90;;;;;;5051132;28;20107;-89
2022/11/02 11:58:56;;;;;;;7.53;1.50;;;14.70;99.90;;;;;;5053842;28;20028;-88
2022/11/02 12:01:23;;;;;;;8.05;1.60;;;14.70;99.90;;;;;;5052741;28;20021;-88
2022/11/02 12:03:54;;;;;;;6.65;2.22;;;14.70;99.90;;;;;;5049885;28;20112;-90
2022/11/02 12:06:40;;;;;;;5.90;1.50;;;14.70;99.90;;;;;;5049944;28;20028;-89
2022/11/02 12:09:30;;;;;;;6.90;1.50;;;14.80;99.90;;;;;;5051251;28;20041;-89
2022/11/02 12:12:17;;;;;;;5.97;1.70;;;14.80;99.90;;;;;;5049637;28;20029;-89
2022/11/02 12:15:04;;;;;;;6.25;1.42;;;14.90;99.90;;;;;;5050280;28;20155;-89
2022/11/02 12:17:48;;;;;;;4.22;1.27;;;15.00;99.90;;;;;;5050027;28;20045;-90
2022/11/02 12:20:31;;;;;;;4.68;1.65;;;15.00;99.90;;;;;;5050434;28;20037;-91
2022/11/02 12:23:21;;;;;;;6.13;1.30;;;15.00;99.90;;;;;;5050930;28;20131;-91
2022/11/02 12:26:13;;;;;;;5.18;1.30;;;14.90;99.90;;;;;;5050800;28;20120;-90
2022/11/02 12:28:57;;;;;;;6.15;1.70;;;14.90;99.90;;;;;;5051330;28;20032;-90
2022/11/02 12:31:36;;;;;;;7.25;1.60;;;14.90;99.90;;;;;;5050100;28;20036;-90
2022/11/02 12:34:35;;;;;;;5.15;1.13;;;14.90;99.90;;;;;;5049053;28;20025;-90
2022/11/02 12:37:27;;;;;;;4.53;1.23;;;15.00;99.90;;;;;;5050174;28;20044;-90
2022/11/02 12:40:10;;;;;;;5.85;1.23;;;15.00;99.90;;;;;;5064402;28;20029;-90
2022/11/02 12:42:54;;;;;;;3.75;1.13;;;15.10;99.90;;;;;;5049463;28;20140;-89
2022/11/02 12:45:35;;;;;;;6.22;1.10;;;15.00;99.90;;;;;;5043912;28;20470;-89
2022/11/02 12:48:04;;;;;;;3.70;1.10;;;14.90;99.90;;;;;;5049168;28;20040;-90
2022/11/02 12:50:48;;;;;;;3.17;1.13;;;14.80;99.90;;;;;;5051145;28;20025;-89
2022/11/02 12:53:44;;;;;;;2.72;1.27;;;14.80;99.90;;;;;;5053829;28;20469;-88
2022/11/02 12:56:44;;;;;;;3.65;1.00;;;14.70;99.90;;;;;;5053472;28;20378;-88
2022/11/02 12:59:33;;;;;;;3.63;1.20;;;14.60;99.90;;;;;;5051127;28;20056;-88
2022/11/02 13:02:15;;;;;;;3.40;1.08;;;14.60;99.90;;;;;;5051199;28;20025;-88
2022/11/02 13:04:55;;;;;;;3.08;1.40;;;14.50;99.90;;;;;;5050045;28;20382;-88
2022/11/02 13:07:32;;;;;;;2.50;1.00;;;14.50;99.90;;;;;;5052443;28;20044;-88
2022/11/02 13:10:12;;;;;;;4.40;1.40;;;14.50;99.90;;;;;;5052089;28;20071;-88
2022/11/02 13:12:38;;;;;;;6.75;2.03;;;14.40;99.90;;;;;;5052983;28;20029;-88
2022/11/02 13:15:06;;;;;;;4.70;1.30;;;14.40;99.90;;;;;;5051997;28;20071;-88
2022/11/02 13:17:43;;;;;;;5.85;1.25;;;14.40;99.90;;;;;;5052515;28;20100;-88
2022/11/02 13:20:23;;;;;;;3.45;1.40;;;14.40;99.90;;;;;;5051650;28;20021;-86
2022/11/02 13:22:55;;;;;;;5.05;1.08;;;14.30;99.90;;;;;;5053586;28;20025;-86